Terminal Aerodrome Forecast
Issued by NWS Sterling, VA

Home | Current Version | Previous Version | Text Only | Print | Product List | Glossary On
Versions: 1 2 3 4 5 6 7 8 9 10 11 12 13 14 15 16 17 18 19 20 21 22 23
913
FTUS41 KLWX 120832 AAA
TAFIAD
TAF AMD
KIAD 120832Z 1209/1312 18010KT P6SM OVC100
     FM121400 22008KT P6SM BKN110
     FM121600 26010KT P6SM BKN100
     FM121800 28015G26KT P6SM BKN045
     FM122200 30016G30KT P6SM BKN045=

USA.gov is the U.S. government's official web portal to all federal, state and local government web resources and services.